Wetterdaten: aktuell Mittwoch, 25.11.2020 20:00
Datum Zeit Temperatur Temp. +5 cm Temp. -10 cm Feuchte A. Luftdruck Regen Wind Richtung Richtung Zeit Sonne UV-I Solarstrahlg Taupunkt Windchill Windben
25.11.2020 20:00 2,5 C -1,1 C 6,1 C 87 % 1020,5 hPa 0,0 l/m 6,0 km/h (2 Bft) SW 229 0 min 0,0 UV-I 0 W/m 0,6 C 0,8 C 9,7 km/h (2 Bft)
25.11.2020 19:00 3,6 C 0,0 C 6,1 C 84 % 1020,5 hPa 0,0 l/m 4,7 km/h (1 Bft) SW 223 0 min 0,0 UV-I 0 W/m 1,2 C 2,6 C 9,7 km/h (2 Bft)
25.11.2020 18:00 5,1 C 1,7 C 6,1 C 80 % 1020,3 hPa 0,0 l/m 5,8 km/h (2 Bft) W-SW 238 0 min 0,0 UV-I 0 W/m 1,9 C 3,9 C 11,3 km/h (2 Bft)
25.11.2020 17:00 4,9 C 0,0 C 6,1 C 82 % 1019,7 hPa 0,0 l/m 5,8 km/h (2 Bft) SW 214 0 min 0,0 UV-I 0 W/m 2,1 C 3,7 C 9,7 km/h (2 Bft)
25.11.2020 16:00 6,1 C 2,8 C 6,1 C 79 % 1019,9 hPa 0,0 l/m 3,5 km/h (1 Bft) SW 235 2 min 0,0 UV-I 9 W/m 2,7 C 6,1 C 6,4 km/h (2 Bft)
25.11.2020 15:00 7,1 C 5,6 C 6,1 C 76 % 1019,9 hPa 0,0 l/m 3,9 km/h (1 Bft) SW 214 48 min 0,0 UV-I 30 W/m 3,2 C 7,1 C 8,0 km/h (2 Bft)
25.11.2020 14:00 7,4 C 8,9 C 6,1 C 75 % 1020,0 hPa 0,0 l/m 5,5 km/h (2 Bft) W-SW 252 60 min 0,6 UV-I 160 W/m 3,3 C 6,6 C 11,3 km/h (2 Bft)
25.11.2020 13:00 6,9 C 10,0 C 6,1 C 77 % 1020,2 hPa 0,0 l/m 7,2 km/h (2 Bft) W-SW 240 60 min 0,8 UV-I 218 W/m 3,2 C 5,6 C 12,9 km/h (3 Bft)
25.11.2020 12:00 5,8 C 9,4 C 6,1 C 81 % 1020,6 hPa 0,0 l/m 4,2 km/h (1 Bft) W-SW 238 26 min 0,9 UV-I 272 W/m 2,8 C 5,8 C 8,0 km/h (2 Bft)
25.11.2020 11:00 4,7 C 6,1 C 5,6 C 84 % 1020,9 hPa 0,0 l/m 5,9 km/h (2 Bft) W 263 0 min 0,7 UV-I 116 W/m 2,2 C 3,4 C 9,7 km/h (2 Bft)
25.11.2020 10:00 4,0 C 5,0 C 5,6 C 86 % 1021,0 hPa 0,0 l/m 4,3 km/h (1 Bft) SW 234 0 min 0,5 UV-I 63 W/m 1,9 C 4,0 C 8,0 km/h (2 Bft)
25.11.2020 09:00 3,3 C 3,3 C 5,6 C 87 % 1020,9 hPa 0,0 l/m 3,2 km/h (1 Bft) W-SW 243 0 min 0,0 UV-I 28 W/m 1,3 C 3,3 C 6,4 km/h (2 Bft)
25.11.2020 08:00 3,0 C 2,8 C 5,6 C 88 % 1020,9 hPa 0,0 l/m 4,2 km/h (1 Bft) W-SW 246 0 min 0,0 UV-I 5 W/m 1,2 C 3,0 C 9,7 km/h (2 Bft)
25.11.2020 07:00 2,9 C 2,2 C 5,6 C 88 % 1020,8 hPa 0,0 l/m 3,6 km/h (1 Bft) SW 217 0 min 0,0 UV-I 0 W/m 1,1 C 2,9 C 6,4 km/h (2 Bft)
25.11.2020 06:00 2,6 C 2,2 C 5,6 C 89 % 1020,9 hPa 0,0 l/m 8,8 km/h (2 Bft) W-SW 244 0 min 0,0 UV-I 0 W/m 1,0 C 0,1 C 14,5 km/h (3 Bft)
25.11.2020 05:00 2,5 C 2,2 C 5,6 C 90 % 1021,1 hPa 0,0 l/m 2,9 km/h (1 Bft) SW 231 0 min 0,0 UV-I 0 W/m 1,0 C 2,5 C 4,8 km/h (1 Bft)
25.11.2020 04:00 2,2 C 1,7 C 5,6 C 91 % 1021,4 hPa 0,0 l/m 6,0 km/h (2 Bft) W-SW 254 0 min 0,0 UV-I 0 W/m 0,9 C 0,5 C 11,3 km/h (2 Bft)
25.11.2020 03:00 2,0 C 1,7 C 5,6 C 92 % 1021,8 hPa 0,0 l/m 7,8 km/h (2 Bft) W-SW 238 0 min 0,0 UV-I 0 W/m 0,8 C -0,3 C 14,5 km/h (3 Bft)
25.11.2020 02:00 1,8 C 1,7 C 5,6 C 92 % 1022,2 hPa 0,2 l/m 3,0 km/h (1 Bft) SW 228 0 min 0,0 UV-I 0 W/m 0,6 C 1,8 C 4,8 km/h (1 Bft)
25.11.2020 01:00 1,3 C 1,1 C 5,6 C 92 % 1022,6 hPa 0,0 l/m 4,1 km/h (1 Bft) SW 217 0 min 0,0 UV-I 0 W/m 0,1 C 1,3 C 12,9 km/h (3 Bft)
25.11.2020 00:00 0,1 C -2,8 C 5,6 C 91 % 1023,0 hPa 0,0 l/m 1,8 km/h (1 Bft) S-SW 204 0 min 0,0 UV-I 0 W/m -1,2 C 0,1 C 3,2 km/h (1 Bft)
_ Min-Zeit 00:02 00:08 12:06 14:48 17:08 - 03:28 - - - - - 00:00 00:24 19:40
Minimum _ 0,1 C -2,8 C 5,6 C 75 % 1019,7 hPa - 1,1 km/h (1 Bft) - - - - - -1,2 C -2,2 C 3,2 km/h (1 Bft)
_ Max-Zeit 14:08 12:36 16:36 03:52 00:12 01:24 01:48 - - 15:54 12:34 11:38 13:30 14:06 01:48
Maximum _ 7,4 C 12,2 C 6,7 C 92 % 1023,1 hPa 0,2 l/m 12,2 km/h
W (2 Bft)
- - 2 min 0,9 UV-I 285 W/m 3,5 C 7,4 C 24,1 km/h
W-SW (4 Bft)
Durchschnitt _ 3,9 C 3,3 C 5,8 C 85 % 1020,8 hPa #0,2 l/m 5,5 km/h (2 Bft) SW - #3:16 h 0,7 UV-I 109 W/m 1,6 C 2,9 C 9,9 km/h (2 Bft)